createdAt,value
2019-05-05T00:02:04.484Z,73.63
2019-05-05T00:04:51.496Z,73.28
2019-05-05T00:09:55.185Z,73.14
2019-05-05T00:12:35.476Z,73.47
2019-05-05T00:15:44.896Z,74.41
2019-05-05T00:18:14.872Z,73.66
2019-05-05T00:20:44.711Z,72.57
2019-05-05T00:23:14.589Z,72.71
2019-05-05T00:25:44.762Z,73.83
2019-05-05T00:28:14.416Z,74.15
2019-05-05T00:30:44.869Z,73.83
2019-05-05T00:33:14.626Z,73.83
2019-05-05T00:35:45.118Z,74.28
2019-05-05T00:38:14.641Z,74.60
2019-05-05T00:40:44.385Z,73.56
2019-05-05T00:43:14.720Z,72.91
2019-05-05T00:45:45.916Z,72.01
2019-05-05T00:48:30.072Z,71.99
2019-05-05T00:50:59.482Z,72.37
2019-05-05T00:53:28.860Z,72.51
2019-05-05T00:55:58.219Z,72.58
2019-05-05T00:58:29.404Z,72.51
2019-05-05T01:01:20.910Z,72.88
2019-05-05T01:03:50.371Z,73.25
2019-05-05T01:06:21.941Z,73.10
2019-05-05T01:08:51.362Z,73.82
2019-05-05T01:11:20.909Z,74.45
2019-05-05T01:13:50.260Z,74.62
2019-05-05T01:16:19.633Z,75.44
2019-05-05T01:18:49.050Z,76.01
2019-05-05T01:21:18.459Z,77.98
2019-05-05T01:23:47.874Z,78.53
2019-05-05T01:26:17.324Z,79.08
2019-05-05T01:28:46.692Z,79.15
2019-05-05T01:31:18.442Z,79.48
2019-05-05T01:34:19.158Z,77.80
2019-05-05T01:36:54.372Z,78.34
2019-05-05T01:39:34.455Z,79.08
2019-05-05T01:42:07.925Z,79.07
2019-05-05T01:44:37.278Z,79.39
2019-05-05T01:47:06.883Z,79.39
2019-05-05T01:49:36.277Z,79.45
2019-05-05T01:52:05.787Z,79.64
2019-05-05T01:54:35.392Z,78.99
2019-05-05T01:57:05.689Z,78.30
2019-05-05T01:59:35.590Z,78.77
2019-05-05T02:02:05.589Z,78.69
2019-05-05T02:04:34.949Z,78.45
2019-05-05T02:07:05.548Z,80.37
2019-05-05T02:09:35.490Z,79.75
2019-05-05T02:12:05.343Z,78.63
2019-05-05T02:14:35.256Z,78.40
2019-05-05T02:17:05.182Z,78.12
2019-05-05T02:19:35.140Z,77.82
2019-05-05T02:22:05.348Z,78.20
2019-05-05T02:24:35.484Z,78.07
2019-05-05T02:27:05.309Z,78.85
2019-05-05T02:29:40.494Z,78.12
2019-05-05T02:32:37.805Z,79.18
2019-05-05T02:35:11.132Z,80.38
2019-05-05T02:37:40.505Z,80.40
2019-05-05T02:40:15.818Z,79.47
2019-05-05T02:42:46.376Z,78.90
2019-05-05T02:45:28.970Z,81.78
2019-05-05T02:48:24.979Z,82.28
2019-05-05T02:51:01.779Z,82.23
2019-05-05T02:53:40.064Z,82.58
2019-05-05T02:56:19.203Z,83.59
2019-05-05T02:58:53.699Z,83.91
2019-05-05T03:01:44.621Z,84.03
2019-05-05T03:04:14.733Z,85.08
2019-05-05T03:06:48.761Z,85.38
2019-05-05T03:09:19.321Z,86.81
2019-05-05T03:11:51.367Z,87.45
2019-05-05T03:14:23.702Z,86.41
2019-05-05T03:16:54.179Z,86.68
2019-05-05T03:19:25.620Z,86.68
2019-05-05T03:21:56.139Z,85.51
2019-05-05T03:24:26.111Z,86.72
2019-05-05T03:26:55.578Z,86.26
2019-05-05T03:29:25.584Z,86.23
2019-05-05T03:31:56.260Z,85.41
2019-05-05T03:34:26.235Z,84.94
2019-05-05T03:36:55.895Z,85.08
2019-05-05T03:39:27.491Z,84.58
2019-05-05T03:42:07.992Z,84.74
2019-05-05T03:44:41.594Z,84.68
2019-05-05T03:47:11.029Z,83.29
2019-05-05T03:49:40.792Z,83.17
2019-05-05T03:52:10.388Z,83.54
2019-05-05T03:54:39.838Z,85.19
2019-05-05T03:57:09.308Z,84.41
2019-05-05T03:59:40.453Z,86.00
2019-05-05T04:02:44.618Z,85.01
2019-05-05T04:05:36.627Z,84.74
2019-05-05T04:08:06.125Z,83.69
2019-05-05T04:10:35.519Z,81.97
2019-05-05T04:13:05.186Z,81.72
2019-05-05T04:15:36.067Z,84.39
2019-05-05T04:18:20.003Z,83.48
2019-05-05T04:20:49.394Z,83.55
2019-05-05T04:23:18.761Z,82.72
2019-05-05T04:25:48.163Z,82.64
2019-05-05T04:28:17.573Z,83.93
2019-05-05T04:30:46.943Z,84.31
2019-05-05T04:33:16.301Z,84.02
2019-05-05T04:35:45.737Z,83.44
2019-05-05T04:38:15.147Z,84.37
2019-05-05T04:40:44.537Z,84.05
2019-05-05T04:43:14.443Z,81.06
2019-05-05T04:45:43.894Z,80.56
2019-05-05T04:48:24.174Z,77.83
2019-05-05T04:51:05.931Z,78.84
2019-05-05T04:53:55.176Z,78.30
2019-05-05T04:56:24.544Z,77.66
2019-05-05T04:58:54.486Z,77.87
2019-05-05T05:01:24.245Z,77.14
2019-05-05T05:04:03.792Z,77.14
2019-05-05T05:06:37.767Z,76.57
2019-05-05T05:09:07.542Z,76.94
2019-05-05T05:11:36.967Z,75.86
2019-05-05T05:14:06.383Z,75.34
2019-05-05T05:16:35.784Z,74.39
2019-05-05T05:19:05.182Z,73.90
2019-05-05T05:21:34.559Z,74.51
2019-05-05T05:24:04.110Z,74.03
2019-05-05T05:26:33.666Z,73.93
2019-05-05T05:29:04.571Z,74.26
2019-05-05T05:31:34.580Z,73.07
2019-05-05T05:34:04.485Z,73.05
2019-05-05T05:36:33.976Z,73.41
2019-05-05T05:39:09.951Z,74.39
2019-05-05T05:41:48.577Z,74.45
2019-05-05T05:44:28.003Z,74.84
2019-05-05T05:47:03.588Z,75.48
2019-05-05T05:49:37.123Z,75.32
2019-05-05T05:52:15.796Z,74.76
2019-05-05T05:54:37.656Z,74.53
2019-05-05T05:57:07.005Z,74.96
2019-05-05T05:59:36.386Z,75.40
2019-05-05T06:02:12.271Z,75.09
2019-05-05T06:04:36.904Z,75.59
2019-05-05T06:07:06.279Z,75.32
2019-05-05T06:09:35.655Z,75.65
2019-05-05T06:12:05.056Z,75.31
2019-05-05T06:14:34.417Z,75.05
2019-05-05T06:17:04.276Z,74.52
2019-05-05T06:19:36.142Z,74.73
2019-05-05T06:22:05.495Z,74.80
2019-05-05T06:24:34.872Z,74.70
2019-05-05T06:27:04.419Z,74.22
2019-05-05T06:29:34.537Z,74.73
2019-05-05T06:32:04.214Z,74.33
2019-05-05T06:34:33.936Z,74.57
2019-05-05T06:37:04.221Z,74.14
2019-05-05T06:39:33.860Z,73.95
2019-05-05T06:42:28.482Z,73.94
2019-05-05T06:45:04.137Z,75.19
2019-05-05T06:47:40.065Z,75.94
2019-05-05T06:50:09.629Z,76.67
2019-05-05T06:52:44.148Z,76.21
2019-05-05T06:55:10.205Z,76.38
2019-05-05T06:57:39.632Z,76.61
2019-05-05T07:00:09.366Z,76.79
2019-05-05T07:02:38.883Z,76.53
2019-05-05T07:05:08.451Z,76.57
2019-05-05T07:07:37.813Z,75.87
2019-05-05T07:10:07.254Z,75.71
2019-05-05T07:12:36.649Z,75.02
2019-05-05T07:15:06.300Z,74.26
2019-05-05T07:17:35.694Z,73.58
2019-05-05T07:20:05.834Z,73.05
2019-05-05T07:22:35.229Z,72.74
2019-05-05T07:25:05.100Z,72.74
2019-05-05T07:27:34.567Z,73.66
2019-05-05T07:30:04.863Z,72.36
2019-05-05T07:32:34.488Z,72.36
2019-05-05T07:35:18.901Z,71.61
2019-05-05T07:37:49.815Z,72.16
2019-05-05T07:40:19.206Z,71.47
2019-05-05T07:42:48.627Z,71.58
2019-05-05T07:45:22.798Z,70.64
2019-05-05T07:47:49.146Z,69.69
2019-05-05T07:50:28.414Z,69.61
2019-05-05T07:52:49.911Z,69.30
2019-05-05T07:55:19.408Z,67.66
2019-05-05T07:57:48.887Z,68.25
2019-05-05T08:00:24.184Z,68.00
2019-05-05T08:02:54.412Z,68.30
2019-05-05T08:05:24.578Z,67.10
2019-05-05T08:07:54.182Z,65.72
2019-05-05T08:10:24.159Z,65.46
2019-05-05T08:12:54.213Z,64.92
2019-05-05T08:15:25.246Z,65.52
2019-05-05T08:18:04.997Z,66.60
2019-05-05T08:20:37.674Z,65.08
2019-05-05T08:23:09.669Z,64.26
2019-05-05T08:25:45.363Z,64.50
2019-05-05T08:28:19.790Z,65.36
2019-05-05T08:31:16.950Z,65.31
2019-05-05T08:33:46.306Z,64.62
2019-05-05T08:36:15.702Z,64.47
2019-05-05T08:38:45.058Z,63.51
2019-05-05T08:41:14.400Z,63.94
2019-05-05T08:43:44.168Z,65.26
2019-05-05T08:46:14.392Z,65.19
2019-05-05T08:48:44.747Z,66.45
2019-05-05T08:51:14.292Z,65.25
2019-05-05T08:53:47.936Z,64.43
2019-05-05T08:56:14.854Z,65.11
2019-05-05T08:58:44.215Z,65.33
2019-05-05T09:01:14.923Z,65.18
2019-05-05T09:03:44.567Z,64.63
2019-05-05T09:06:18.139Z,64.60
2019-05-05T09:08:47.552Z,64.48
2019-05-05T09:11:16.998Z,65.90
2019-05-05T09:13:46.334Z,65.84
2019-05-05T09:16:15.700Z,66.69
2019-05-05T09:19:07.827Z,65.68
2019-05-05T09:21:37.174Z,66.55
2019-05-05T09:24:26.022Z,66.47
2019-05-05T09:27:03.663Z,65.38
2019-05-05T09:29:36.046Z,65.41
2019-05-05T09:32:05.530Z,65.67
2019-05-05T09:34:34.931Z,64.44
2019-05-05T09:37:05.094Z,63.10
2019-05-05T09:39:34.689Z,62.14
2019-05-05T09:42:04.362Z,61.78
2019-05-05T09:44:34.631Z,61.88
2019-05-05T09:47:04.921Z,62.31
2019-05-05T09:49:34.487Z,63.14
2019-05-05T09:52:05.036Z,62.97
2019-05-05T09:54:34.770Z,62.11
2019-05-05T09:57:04.676Z,62.07
2019-05-05T09:59:34.808Z,62.10
2019-05-05T10:02:04.631Z,61.48
2019-05-05T10:04:35.339Z,61.48
2019-05-05T10:07:04.920Z,61.50
2019-05-05T10:09:35.413Z,61.84
2019-05-05T10:12:04.997Z,62.47
2019-05-05T10:14:34.458Z,61.82
2019-05-05T10:17:04.900Z,61.49
2019-05-05T10:19:34.578Z,60.84
2019-05-05T10:22:04.209Z,60.68
2019-05-05T10:24:55.248Z,61.78
2019-05-05T10:27:23.630Z,61.62
2019-05-05T10:29:54.730Z,61.42
2019-05-05T10:32:25.226Z,61.18
2019-05-05T10:35:04.467Z,61.55
2019-05-05T10:37:34.638Z,62.00
2019-05-05T10:40:04.732Z,61.65
2019-05-05T10:42:53.912Z,62.27
2019-05-05T10:45:24.919Z,62.79
2019-05-05T10:47:54.817Z,62.34
2019-05-05T10:50:24.784Z,61.42
2019-05-05T10:52:54.419Z,61.07
2019-05-05T10:55:24.499Z,61.29
2019-05-05T10:57:54.726Z,61.82
2019-05-05T11:01:01.112Z,61.10
2019-05-05T11:03:30.804Z,61.92
2019-05-05T11:06:00.319Z,62.73
2019-05-05T11:08:31.425Z,62.82
2019-05-05T11:11:00.978Z,63.01
2019-05-05T11:13:30.442Z,62.55
2019-05-05T11:15:59.818Z,63.09
2019-05-05T11:18:29.371Z,64.00
2019-05-05T11:20:58.778Z,64.23
2019-05-05T11:23:28.152Z,64.68
2019-05-05T11:25:57.527Z,64.42
2019-05-05T11:28:26.910Z,64.06
2019-05-05T11:30:56.292Z,63.75
2019-05-05T11:33:43.772Z,63.21
2019-05-05T11:36:19.109Z,63.93
2019-05-05T11:38:48.518Z,63.47
2019-05-05T11:41:17.879Z,63.05
2019-05-05T11:43:47.236Z,64.08
2019-05-05T11:46:16.605Z,63.52
2019-05-05T11:48:46.577Z,63.47
2019-05-05T11:51:16.110Z,63.00
2019-05-05T11:53:45.484Z,62.19
2019-05-05T11:56:14.929Z,61.81
2019-05-05T11:58:44.487Z,61.99
2019-05-05T12:01:14.092Z,62.21
2019-05-05T12:03:44.526Z,61.72
2019-05-05T12:06:14.856Z,61.06
2019-05-05T12:08:45.953Z,61.46
2019-05-05T12:11:15.701Z,60.75
2019-05-05T12:13:47.789Z,60.29
2019-05-05T12:16:30.475Z,60.66
2019-05-05T12:19:01.032Z,60.21
2019-05-05T12:21:30.386Z,60.22
2019-05-05T12:24:03.873Z,61.42
2019-05-05T12:26:50.339Z,61.00
2019-05-05T12:29:26.234Z,59.71
2019-05-05T12:31:55.625Z,59.34
2019-05-05T12:34:25.119Z,59.09
2019-05-05T12:36:54.791Z,58.28
2019-05-05T12:39:24.182Z,57.78
2019-05-05T12:41:54.300Z,57.35
2019-05-05T12:44:28.922Z,56.83
2019-05-05T12:47:34.240Z,56.04
2019-05-05T12:50:03.676Z,56.69
2019-05-05T12:52:33.577Z,56.76
2019-05-05T12:55:05.128Z,57.99
2019-05-05T12:57:34.353Z,58.11
2019-05-05T13:00:05.295Z,59.29
2019-05-05T13:02:34.669Z,58.81
2019-05-05T13:05:04.556Z,58.95
2019-05-05T13:07:33.944Z,59.80
2019-05-05T13:10:04.804Z,58.62
2019-05-05T13:12:34.486Z,57.93
2019-05-05T13:15:04.246Z,57.09
2019-05-05T13:17:33.943Z,57.16
2019-05-05T13:20:25.190Z,57.29
2019-05-05T13:23:14.884Z,57.42
2019-05-05T13:25:58.496Z,58.40
2019-05-05T13:28:25.094Z,58.92
2019-05-05T13:30:54.477Z,58.39
2019-05-05T13:33:24.668Z,57.89
2019-05-05T13:35:54.113Z,57.81
2019-05-05T13:38:24.042Z,57.06
2019-05-05T13:40:54.420Z,57.06
2019-05-05T13:43:23.950Z,55.73
2019-05-05T13:46:05.315Z,56.26
2019-05-05T13:48:34.622Z,56.26
2019-05-05T13:51:05.384Z,55.83
2019-05-05T13:53:34.771Z,55.22
2019-05-05T13:56:11.937Z,55.85
2019-05-05T13:58:35.533Z,56.46
2019-05-05T14:01:04.880Z,56.89
2019-05-05T14:03:34.345Z,57.53
2019-05-05T14:06:04.741Z,58.39
2019-05-05T14:08:36.438Z,58.57
2019-05-05T14:11:05.484Z,59.50
2019-05-05T14:13:34.969Z,60.59
2019-05-05T14:16:04.480Z,61.28
2019-05-05T14:18:33.880Z,61.22
2019-05-05T14:21:03.244Z,61.32
2019-05-05T14:23:34.909Z,61.06
2019-05-05T14:26:05.810Z,61.20
2019-05-05T14:28:35.154Z,61.05
2019-05-05T14:31:14.092Z,59.99
2019-05-05T14:33:58.704Z,57.39
2019-05-05T14:36:35.171Z,55.28
2019-05-05T14:39:07.109Z,54.83
2019-05-05T14:41:36.541Z,55.39
2019-05-05T14:44:06.058Z,57.16
2019-05-05T14:46:35.441Z,55.80
2019-05-05T14:49:05.856Z,57.23
2019-05-05T14:51:35.426Z,58.18
2019-05-05T14:54:05.038Z,60.02
2019-05-05T14:56:36.601Z,61.95
2019-05-05T14:59:05.713Z,62.78
2019-05-05T15:01:35.139Z,63.29
2019-05-05T15:04:04.539Z,64.40
2019-05-05T15:06:50.594Z,64.84
2019-05-05T15:09:37.844Z,65.44
2019-05-05T15:12:24.744Z,66.76
2019-05-05T15:14:54.709Z,67.72
2019-05-05T15:17:24.644Z,68.81
2019-05-05T15:19:54.247Z,69.44
2019-05-05T15:22:27.249Z,70.22
2019-05-05T15:24:57.074Z,70.58
2019-05-05T15:27:26.445Z,71.61
2019-05-05T15:29:55.841Z,71.55
2019-05-05T15:32:25.239Z,71.91
2019-05-05T15:34:54.767Z,71.36
2019-05-05T15:37:24.147Z,70.87
2019-05-05T15:39:53.779Z,71.21
2019-05-05T15:42:23.177Z,71.18
2019-05-05T15:44:54.355Z,72.13
2019-05-05T15:47:25.321Z,72.80
2019-05-05T15:49:54.651Z,73.01
2019-05-05T15:52:24.376Z,73.19
2019-05-05T15:54:54.070Z,73.05
2019-05-05T15:57:24.121Z,73.01
2019-05-05T15:59:54.319Z,73.38
2019-05-05T16:02:24.083Z,73.40
2019-05-05T16:04:54.100Z,73.58
2019-05-05T16:07:24.245Z,73.27
2019-05-05T16:09:53.892Z,73.75
2019-05-05T16:12:32.002Z,73.15
2019-05-05T16:15:16.360Z,72.40
2019-05-05T16:17:53.254Z,72.64
2019-05-05T16:20:28.797Z,73.27
2019-05-05T16:23:22.966Z,72.50
2019-05-05T16:25:54.249Z,72.92
2019-05-05T16:28:25.119Z,73.64
2019-05-05T16:30:56.168Z,73.48
2019-05-05T16:33:25.756Z,74.72
2019-05-05T16:35:55.255Z,74.91
2019-05-05T16:38:24.686Z,74.81
2019-05-05T16:40:54.116Z,74.41
2019-05-05T16:43:24.702Z,74.95
2019-05-05T16:45:54.126Z,74.96
2019-05-05T16:48:25.601Z,74.41
2019-05-05T16:50:54.591Z,74.85
2019-05-05T16:53:48.803Z,74.88
2019-05-05T16:56:18.412Z,74.64
2019-05-05T16:58:47.819Z,73.97
2019-05-05T17:01:17.362Z,76.03
2019-05-05T17:03:47.121Z,73.79
2019-05-05T17:06:16.745Z,75.54
2019-05-05T17:08:46.293Z,77.32
2019-05-05T17:11:15.696Z,78.78
2019-05-05T17:14:05.214Z,79.12
2019-05-05T17:16:54.472Z,78.61
2019-05-05T17:19:40.947Z,78.22
2019-05-05T17:22:28.282Z,78.72
2019-05-05T17:24:59.189Z,79.55
2019-05-05T17:27:29.578Z,81.40
2019-05-05T17:30:00.476Z,85.72
2019-05-05T17:32:29.988Z,87.77
2019-05-05T17:34:59.361Z,83.55
2019-05-05T17:37:29.266Z,82.84
2019-05-05T17:40:24.252Z,84.84
2019-05-05T17:43:24.422Z,85.71
2019-05-05T17:46:04.890Z,85.47
2019-05-05T17:48:38.450Z,89.25
2019-05-05T17:51:38.934Z,83.33
2019-05-05T17:54:33.940Z,89.50
2019-05-05T17:57:03.739Z,88.74
2019-05-05T17:59:33.882Z,88.21
2019-05-05T18:02:04.788Z,87.99
2019-05-05T18:04:34.291Z,88.57
2019-05-05T18:07:16.651Z,86.21
2019-05-05T18:10:00.858Z,86.51
2019-05-05T18:12:49.188Z,92.60
2019-05-05T18:15:48.302Z,92.04
2019-05-05T18:18:18.592Z,92.20
2019-05-05T18:20:47.958Z,92.82
2019-05-05T18:23:17.364Z,93.69
2019-05-05T18:25:46.938Z,94.47
2019-05-05T18:28:19.905Z,86.66
2019-05-05T18:30:47.534Z,90.11
2019-05-05T18:33:16.934Z,91.30
2019-05-05T18:35:46.282Z,91.30
2019-05-05T18:38:15.639Z,91.56
2019-05-05T18:40:45.952Z,90.37
2019-05-05T18:43:24.356Z,90.29
2019-05-05T18:46:04.727Z,92.15
2019-05-05T18:48:34.630Z,93.28
2019-05-05T18:51:04.220Z,93.31
2019-05-05T18:53:34.194Z,93.84
2019-05-05T18:56:03.983Z,94.91
2019-05-05T18:58:34.277Z,93.98
2019-05-05T19:01:24.149Z,94.50
2019-05-05T19:04:11.260Z,93.56
2019-05-05T19:06:50.386Z,93.70
2019-05-05T19:09:21.345Z,94.44
2019-05-05T19:11:50.755Z,95.35
2019-05-05T19:14:24.315Z,95.22
2019-05-05T19:16:55.631Z,94.51
2019-05-05T19:19:27.368Z,94.16
2019-05-05T19:21:59.993Z,94.24
2019-05-05T19:24:29.376Z,94.31
2019-05-05T19:26:58.766Z,94.32
2019-05-05T19:29:28.184Z,94.32
2019-05-05T19:31:57.671Z,90.27
2019-05-05T19:34:27.086Z,92.87
2019-05-05T19:36:56.455Z,92.87
2019-05-05T19:39:25.849Z,93.04
2019-05-05T19:41:55.284Z,91.09
2019-05-05T19:44:26.169Z,91.09
2019-05-05T19:47:05.897Z,90.68
2019-05-05T19:49:35.449Z,92.74
2019-05-05T19:52:05.897Z,92.74
2019-05-05T19:54:36.402Z,92.67
2019-05-05T19:57:05.998Z,90.72
2019-05-05T19:59:35.783Z,89.61
2019-05-05T20:02:05.909Z,89.61
2019-05-05T20:04:35.332Z,89.55
2019-05-05T20:07:04.768Z,91.64
2019-05-05T20:09:34.205Z,87.26
2019-05-05T20:12:04.162Z,87.26
2019-05-05T20:14:34.306Z,83.42
2019-05-05T20:17:27.607Z,83.42
2019-05-05T20:19:57.035Z,89.98
2019-05-05T20:22:26.454Z,91.62
2019-05-05T20:24:55.880Z,92.19
2019-05-05T20:27:25.333Z,92.19
2019-05-05T20:29:54.723Z,92.05
2019-05-05T20:32:30.679Z,91.60
2019-05-05T20:35:08.636Z,93.16
2019-05-05T20:37:43.196Z,93.16
2019-05-05T20:40:14.723Z,93.38
2019-05-05T20:42:44.782Z,93.86
2019-05-05T20:45:17.036Z,94.00
2019-05-05T20:47:46.444Z,94.44
2019-05-05T20:50:15.973Z,94.34
2019-05-05T20:52:45.375Z,94.34
2019-05-05T20:55:14.771Z,94.67
2019-05-05T20:57:44.424Z,94.67
2019-05-05T21:00:16.342Z,94.47
2019-05-05T21:02:45.751Z,94.30
2019-05-05T21:05:15.131Z,94.35
2019-05-05T21:07:44.539Z,94.59
2019-05-05T21:10:14.501Z,94.55
2019-05-05T21:12:45.567Z,94.82
2019-05-05T21:15:15.202Z,94.82
2019-05-05T21:17:47.694Z,94.62
2019-05-05T21:20:17.096Z,94.90
2019-05-05T21:22:55.580Z,94.85
2019-05-05T21:25:27.536Z,95.08
2019-05-05T21:27:56.904Z,94.81
2019-05-05T21:30:26.373Z,94.64
2019-05-05T21:32:55.753Z,94.20
2019-05-05T21:35:25.185Z,94.31
2019-05-05T21:37:54.574Z,93.94
2019-05-05T21:40:25.208Z,93.51
2019-05-05T21:42:54.563Z,93.70
2019-05-05T21:45:24.025Z,93.58
2019-05-05T21:47:54.946Z,93.58
2019-05-05T21:50:30.603Z,93.29
2019-05-05T21:53:14.482Z,92.56
2019-05-05T21:55:53.684Z,92.93
2019-05-05T21:58:43.968Z,92.97
2019-05-05T22:01:15.840Z,93.15
2019-05-05T22:03:45.209Z,92.91
2019-05-05T22:06:14.762Z,93.11
2019-05-05T22:08:44.209Z,92.45
2019-05-05T22:11:14.700Z,91.66
2019-05-05T22:13:44.457Z,91.71
2019-05-05T22:16:13.868Z,92.47
2019-05-05T22:18:44.703Z,92.47
2019-05-05T22:21:35.682Z,92.20
2019-05-05T22:24:20.433Z,92.03
2019-05-05T22:26:49.993Z,92.81
2019-05-05T22:29:19.472Z,93.68
2019-05-05T22:31:49.013Z,92.74
2019-05-05T22:34:18.398Z,91.28
2019-05-05T22:36:47.769Z,91.50
2019-05-05T22:39:17.310Z,90.25
2019-05-05T22:41:46.933Z,90.46
2019-05-05T22:44:16.405Z,91.52
2019-05-05T22:46:45.824Z,92.33
2019-05-05T22:49:15.223Z,92.63
2019-05-05T22:51:44.942Z,92.92
2019-05-05T22:54:15.056Z,92.99
2019-05-05T22:56:45.015Z,92.63
2019-05-05T22:59:14.460Z,92.05
2019-05-05T23:01:43.849Z,90.91
2019-05-05T23:04:35.078Z,90.84
2019-05-05T23:07:14.411Z,91.51
2019-05-05T23:09:44.356Z,90.79
2019-05-05T23:12:13.864Z,92.30
2019-05-05T23:14:43.785Z,91.11
2019-05-05T23:17:28.620Z,90.13
2019-05-05T23:20:05.299Z,89.62
2019-05-05T23:22:47.606Z,89.27
2019-05-05T23:25:25.845Z,90.18
2019-05-05T23:27:55.241Z,90.54
2019-05-05T23:30:37.880Z,90.14
2019-05-05T23:32:56.215Z,89.79
2019-05-05T23:35:25.599Z,89.89
2019-05-05T23:37:55.391Z,90.02
2019-05-05T23:40:25.703Z,89.17
2019-05-05T23:42:56.181Z,89.17
2019-05-05T23:45:25.551Z,89.61
2019-05-05T23:47:54.940Z,89.95
2019-05-05T23:50:24.366Z,90.37
2019-05-05T23:52:54.679Z,90.24
2019-05-05T23:55:24.363Z,89.88
2019-05-05T23:57:54.681Z,90.00
